createdAt,value
2017-04-08T00:00:23.573Z,1018.14
2017-04-08T00:01:23.652Z,1018.07
2017-04-08T00:02:23.648Z,1018.1
2017-04-08T00:03:23.669Z,1018.09
2017-04-08T00:04:23.706Z,1018.12
2017-04-08T00:05:23.735Z,1018.14
2017-04-08T00:06:23.792Z,1018.11
2017-04-08T00:07:23.787Z,1018.15
2017-04-08T00:08:23.822Z,1018.14
2017-04-08T00:09:23.847Z,1018.16
2017-04-08T00:10:23.911Z,1018.17
2017-04-08T00:11:23.912Z,1018.18
2017-04-08T00:12:23.935Z,1018.18
2017-04-08T00:13:23.977Z,1018.11
2017-04-08T00:14:24.035Z,1018.16
2017-04-08T00:15:24.036Z,1018.09
2017-04-08T00:16:24.056Z,1018.14
2017-04-08T00:17:24.127Z,1018.15
2017-04-08T00:18:24.151Z,1018.08
2017-04-08T00:19:24.155Z,1018.17
2017-04-08T00:20:24.183Z,1018.15
2017-04-08T00:21:24.242Z,1018.13
2017-04-08T00:22:24.237Z,1018.11
2017-04-08T00:23:24.301Z,1018.15
2017-04-08T00:24:24.306Z,1018.14
2017-04-08T00:25:24.338Z,1018.12
2017-04-08T00:26:24.362Z,1018.13
2017-04-08T00:27:24.422Z,1018.15
2017-04-08T00:28:24.452Z,1018.16
2017-04-08T00:29:24.443Z,1018.16
2017-04-08T00:30:24.510Z,1018.19
2017-04-08T00:31:24.513Z,1018.2
2017-04-08T00:32:24.541Z,1018.17
2017-04-08T00:33:24.583Z,1018.24
2017-04-08T00:34:24.603Z,1018.24
2017-04-08T00:35:24.636Z,1018.25
2017-04-08T00:36:24.692Z,1018.28
2017-04-08T00:37:24.699Z,1018.34
2017-04-08T00:38:24.718Z,1018.29
2017-04-08T00:39:24.747Z,1018.26
2017-04-08T00:40:24.782Z,1018.32
2017-04-08T00:41:24.842Z,1018.29
2017-04-08T00:42:24.837Z,1018.3
2017-04-08T00:43:24.875Z,1018.32
2017-04-08T00:44:24.897Z,1018.28
2017-04-08T00:45:24.961Z,1018.27
2017-04-08T00:46:24.964Z,1018.31
2017-04-08T00:47:24.985Z,1018.28
2017-04-08T00:48:25.024Z,1018.3
2017-04-08T00:49:25.047Z,1018.26
2017-04-08T00:50:25.107Z,1018.28
2017-04-08T00:51:25.103Z,1018.3
2017-04-08T00:52:25.137Z,1018.3
2017-04-08T00:53:25.175Z,1018.29
2017-04-08T00:54:25.201Z,1018.27
2017-04-08T00:55:25.258Z,1018.37
2017-04-08T00:56:25.256Z,1018.28
2017-04-08T00:57:25.282Z,1018.31
2017-04-08T00:58:25.361Z,1018.34
2017-04-08T00:59:25.347Z,1018.28
2017-04-08T01:00:25.567Z,1018.37
2017-04-08T01:01:25.439Z,1018.28
2017-04-08T01:02:25.443Z,1018.3
2017-04-08T01:03:25.472Z,1018.29
2017-04-08T01:04:25.527Z,1018.31
2017-04-08T01:05:25.560Z,1018.29
2017-04-08T01:06:25.557Z,1018.27
2017-04-08T01:07:25.592Z,1018.29
2017-04-08T01:08:25.648Z,1018.29
2017-04-08T01:09:25.647Z,1018.34
2017-04-08T01:10:25.676Z,1018.26
2017-04-08T01:11:25.713Z,1018.27
2017-04-08T01:12:25.742Z,1018.28
2017-04-08T01:13:25.763Z,1018.36
2017-04-08T01:14:25.799Z,1018.21
2017-04-08T01:15:25.861Z,1018.27
2017-04-08T01:16:25.863Z,1018.27
2017-04-08T01:17:25.923Z,1018.29
2017-04-08T01:18:25.948Z,1018.3
2017-04-08T01:19:25.945Z,1018.31
2017-04-08T01:20:25.976Z,1018.29
2017-04-08T01:21:26.041Z,1018.27
2017-04-08T01:22:26.043Z,1018.32
2017-04-08T01:23:26.063Z,1018.31
2017-04-08T01:24:26.097Z,1018.26
2017-04-08T01:25:26.159Z,1018.29
2017-04-08T01:26:26.161Z,1018.26
2017-04-08T01:27:26.190Z,1018.33
2017-04-08T01:28:26.249Z,1018.33
2017-04-08T01:29:26.242Z,1018.31
2017-04-08T01:30:26.303Z,1018.34
2017-04-08T01:31:26.309Z,1018.3
2017-04-08T01:32:26.337Z,1018.24
2017-04-08T01:33:26.369Z,1018.26
2017-04-08T01:34:26.426Z,1018.24
2017-04-08T01:35:26.432Z,1018.3
2017-04-08T01:36:26.453Z,1018.26
2017-04-08T01:37:26.491Z,1018.3
2017-04-08T01:38:26.525Z,1018.26
2017-04-08T01:39:26.543Z,1018.27
2017-04-08T01:40:26.578Z,1018.29
2017-04-08T01:41:26.608Z,1018.32
2017-04-08T01:42:26.666Z,1018.27
2017-04-08T01:43:26.669Z,1018.27
2017-04-08T01:44:26.698Z,1018.33
2017-04-08T01:45:26.734Z,1018.34
2017-04-08T01:46:26.753Z,1018.36
2017-04-08T01:47:26.818Z,1018.38
2017-04-08T01:48:26.812Z,1018.38
2017-04-08T01:49:26.846Z,1018.39
2017-04-08T01:50:27.054Z,1018.4
2017-04-08T01:51:26.933Z,1018.45
2017-04-08T01:52:26.968Z,1018.46
2017-04-08T01:53:26.967Z,1018.48
2017-04-08T01:54:26.989Z,1018.46
2017-04-08T01:55:27.030Z,1018.46
2017-04-08T01:56:27.053Z,1018.46
2017-04-08T01:57:27.114Z,1018.47
2017-04-08T01:58:27.108Z,1018.49
2017-04-08T01:59:27.149Z,1018.54
2017-04-08T02:00:27.205Z,1018.55
2017-04-08T02:01:27.211Z,1018.56
2017-04-08T02:02:27.239Z,1018.52
2017-04-08T02:03:27.256Z,1018.59
2017-04-08T02:04:27.292Z,1018.56
2017-04-08T02:05:27.355Z,1018.54
2017-04-08T02:06:27.351Z,1018.55
2017-04-08T02:07:27.380Z,1018.56
2017-04-08T02:08:27.411Z,1018.59
2017-04-08T02:09:27.447Z,1018.62
2017-04-08T02:10:27.504Z,1018.59
2017-04-08T02:11:27.504Z,1018.64
2017-04-08T02:12:27.525Z,1018.62
2017-04-08T02:13:27.555Z,1018.61
2017-04-08T02:14:27.596Z,1018.6
2017-04-08T02:15:27.623Z,1018.61
2017-04-08T02:16:27.650Z,1018.61
2017-04-08T02:17:27.681Z,1018.62
2017-04-08T02:18:27.714Z,1018.62
2017-04-08T02:19:27.769Z,1018.65
2017-04-08T02:20:27.760Z,1018.63
2017-04-08T02:21:27.799Z,1018.64
2017-04-08T02:22:27.836Z,1018.63
2017-04-08T02:23:27.861Z,1018.62
2017-04-08T02:24:27.890Z,1018.68
2017-04-08T02:25:27.920Z,1018.64
2017-04-08T02:26:27.950Z,1018.69
2017-04-08T02:27:28.007Z,1018.65
2017-04-08T02:28:28.034Z,1018.65
2017-04-08T02:29:28.064Z,1018.65
2017-04-08T02:30:28.060Z,1018.65
2017-04-08T02:31:28.125Z,1018.71
2017-04-08T02:32:28.150Z,1018.59
2017-04-08T02:33:28.156Z,1018.63
2017-04-08T02:34:28.182Z,1018.64
2017-04-08T02:35:28.217Z,1018.65
2017-04-08T02:36:28.273Z,1018.66
2017-04-08T02:37:28.277Z,1018.65
2017-04-08T02:38:28.301Z,1018.64
2017-04-08T02:39:28.336Z,1018.71
2017-04-08T02:40:28.364Z,1018.73
2017-04-08T02:41:28.395Z,1018.67
2017-04-08T02:42:28.423Z,1018.68
2017-04-08T02:43:28.450Z,1018.69
2017-04-08T02:44:28.482Z,1018.68
2017-04-08T02:45:28.535Z,1018.7
2017-04-08T02:46:28.570Z,1018.66
2017-04-08T02:47:28.569Z,1018.69
2017-04-08T02:48:28.602Z,1018.68
2017-04-08T02:49:28.622Z,1018.66
2017-04-08T02:50:28.657Z,1018.71
2017-04-08T02:51:28.717Z,1018.71
2017-04-08T02:52:28.713Z,1018.75
2017-04-08T02:53:28.746Z,1018.72
2017-04-08T02:54:28.804Z,1018.74
2017-04-08T02:55:28.835Z,1018.8
2017-04-08T02:56:28.867Z,1018.7
2017-04-08T02:57:28.862Z,1018.69
2017-04-08T02:58:28.900Z,1018.74
2017-04-08T02:59:28.931Z,1018.78
2017-04-08T03:00:28.982Z,1018.77
2017-04-08T03:01:28.987Z,1018.77
2017-04-08T03:02:29.042Z,1018.72
2017-04-08T03:03:29.076Z,1018.69
2017-04-08T03:04:29.066Z,1018.78
2017-04-08T03:05:29.101Z,1018.76
2017-04-08T03:06:29.158Z,1018.77
2017-04-08T03:07:29.192Z,1018.71
2017-04-08T03:08:29.222Z,1018.79
2017-04-08T03:09:29.214Z,1018.78
2017-04-08T03:10:29.249Z,1018.77
2017-04-08T03:11:29.281Z,1018.82
2017-04-08T03:12:29.340Z,1018.81
2017-04-08T03:13:29.345Z,1018.86
2017-04-08T03:14:29.398Z,1018.85
2017-04-08T03:15:29.394Z,1018.87
2017-04-08T03:16:29.436Z,1018.85
2017-04-08T03:17:29.458Z,1018.81
2017-04-08T03:18:29.492Z,1018.8
2017-04-08T03:19:29.516Z,1018.81
2017-04-08T03:20:29.546Z,1018.84
2017-04-08T03:21:29.606Z,1018.77
2017-04-08T03:22:29.601Z,1018.8
2017-04-08T03:23:29.664Z,1018.74
2017-04-08T03:24:29.666Z,1018.75
2017-04-08T03:25:29.696Z,1018.71
2017-04-08T03:26:29.753Z,1018.82
2017-04-08T03:27:29.748Z,1018.76
2017-04-08T03:28:29.787Z,1018.84
2017-04-08T03:29:29.815Z,1018.81
2017-04-08T03:30:29.847Z,1018.84
2017-04-08T03:31:29.868Z,1018.83
2017-04-08T03:32:29.906Z,1018.84
2017-04-08T03:33:29.937Z,1018.87
2017-04-08T03:34:29.967Z,1018.85
2017-04-08T03:35:29.993Z,1018.87
2017-04-08T03:36:30.053Z,1018.88
2017-04-08T03:37:30.045Z,1018.87
2017-04-08T03:38:30.082Z,1018.91
2017-04-08T03:39:30.111Z,1018.9
2017-04-08T03:40:30.167Z,1018.97
2017-04-08T03:41:30.201Z,1018.94
2017-04-08T03:42:30.201Z,1018.99
2017-04-08T03:43:30.256Z,1018.98
2017-04-08T03:44:30.249Z,1018.96
2017-04-08T03:45:30.320Z,1018.98
2017-04-08T03:46:30.317Z,1019
2017-04-08T03:47:30.341Z,1018.99
2017-04-08T03:48:30.379Z,1018.97
2017-04-08T03:49:30.395Z,1018.97
2017-04-08T03:50:30.465Z,1018.97
2017-04-08T03:51:30.475Z,1019.01
2017-04-08T03:52:30.522Z,1018.97
2017-04-08T03:53:30.517Z,1018.99
2017-04-08T03:54:30.549Z,1018.98
2017-04-08T03:55:30.579Z,1018.95
2017-04-08T03:56:30.610Z,1018.96
2017-04-08T03:57:30.668Z,1018.98
2017-04-08T03:58:30.669Z,1018.98
2017-04-08T03:59:30.729Z,1019.02
2017-04-08T04:00:30.724Z,1019.02
2017-04-08T04:01:30.739Z,1019.07
2017-04-08T04:02:30.788Z,1019.07
2017-04-08T04:03:30.798Z,1019.07
2017-04-08T04:04:30.851Z,1019.11
2017-04-08T04:05:30.880Z,1019.09
2017-04-08T04:06:30.910Z,1019.03
2017-04-08T04:07:30.921Z,1019.06
2017-04-08T04:08:30.969Z,1019.07
2017-04-08T04:09:30.997Z,1019.05
2017-04-08T04:10:31.009Z,1019.07
2017-04-08T04:11:31.053Z,1019.08
2017-04-08T04:12:31.083Z,1019.11
2017-04-08T04:13:31.116Z,1019.1
2017-04-08T04:14:31.143Z,1019.1
2017-04-08T04:15:31.174Z,1019.09
2017-04-08T04:16:31.181Z,1019.12
2017-04-08T04:17:31.234Z,1019.11
2017-04-08T04:18:31.257Z,1019.16
2017-04-08T04:19:31.290Z,1019.14
2017-04-08T04:20:31.318Z,1019.19
2017-04-08T04:21:31.355Z,1019.2
2017-04-08T04:22:31.379Z,1019.2
2017-04-08T04:23:31.410Z,1019.21
2017-04-08T04:24:31.440Z,1019.24
2017-04-08T04:25:31.475Z,1019.23
2017-04-08T04:26:31.495Z,1019.29
2017-04-08T04:27:31.524Z,1019.29
2017-04-08T04:28:31.553Z,1019.25
2017-04-08T04:29:31.585Z,1019.29
2017-04-08T04:30:31.616Z,1019.29
2017-04-08T04:31:31.645Z,1019.34
2017-04-08T04:32:31.675Z,1019.36
2017-04-08T04:33:31.704Z,1019.28
2017-04-08T04:34:31.729Z,1019.35
2017-04-08T04:35:31.750Z,1019.36
2017-04-08T04:36:31.791Z,1019.34
2017-04-08T04:37:31.826Z,1019.31
2017-04-08T04:38:31.836Z,1019.32
2017-04-08T04:39:31.883Z,1019.35
2017-04-08T04:40:31.910Z,1019.32
2017-04-08T04:41:31.941Z,1019.34
2017-04-08T04:42:31.968Z,1019.32
2017-04-08T04:43:31.999Z,1019.36
2017-04-08T04:44:32.026Z,1019.37
2017-04-08T04:45:32.054Z,1019.4
2017-04-08T04:46:32.089Z,1019.41
2017-04-08T04:47:32.119Z,1019.46
2017-04-08T04:48:32.151Z,1019.44
2017-04-08T04:49:32.157Z,1019.47
2017-04-08T04:50:32.206Z,1019.48
2017-04-08T04:51:32.239Z,1019.5
2017-04-08T04:52:32.248Z,1019.52
2017-04-08T04:53:32.297Z,1019.58
2017-04-08T04:54:32.325Z,1019.55
2017-04-08T04:55:32.353Z,1019.55
2017-04-08T04:56:32.382Z,1019.56
2017-04-08T04:57:32.415Z,1019.59
2017-04-08T04:58:32.445Z,1019.6
2017-04-08T04:59:32.472Z,1019.63
2017-04-08T05:00:32.511Z,1019.6
2017-04-08T05:01:32.536Z,1019.57
2017-04-08T05:02:32.550Z,1019.64
2017-04-08T05:03:32.593Z,1019.63
2017-04-08T05:04:32.624Z,1019.56
2017-04-08T05:05:32.633Z,1019.54
2017-04-08T05:06:32.682Z,1019.59
2017-04-08T05:07:32.711Z,1019.52
2017-04-08T05:08:32.741Z,1019.52
2017-04-08T05:09:32.771Z,1019.49
2017-04-08T05:10:32.799Z,1019.55
2017-04-08T05:11:32.834Z,1019.53
2017-04-08T05:12:32.857Z,1019.54
2017-04-08T05:13:32.889Z,1019.58
2017-04-08T05:14:32.896Z,1019.6
2017-04-08T05:15:32.949Z,1019.6
2017-04-08T05:16:32.977Z,1019.59
2017-04-08T05:17:33.016Z,1019.63
2017-04-08T05:18:33.039Z,1019.59
2017-04-08T05:19:33.072Z,1019.64
2017-04-08T05:20:33.102Z,1019.63
2017-04-08T05:21:33.133Z,1019.63
2017-04-08T05:22:33.158Z,1019.67
2017-04-08T05:23:33.187Z,1019.66
2017-04-08T05:24:33.216Z,1019.62
2017-04-08T05:25:33.253Z,1019.63
2017-04-08T05:26:33.278Z,1019.72
2017-04-08T05:27:33.307Z,1019.66
2017-04-08T05:28:33.345Z,1019.69
2017-04-08T05:29:33.367Z,1019.73
2017-04-08T05:30:33.399Z,1019.73
2017-04-08T05:31:33.426Z,1019.73
2017-04-08T05:32:33.459Z,1019.74
2017-04-08T05:33:33.486Z,1019.72
2017-04-08T05:34:33.516Z,1019.74
2017-04-08T05:35:33.551Z,1019.78
2017-04-08T05:36:33.574Z,1019.77
2017-04-08T05:37:33.610Z,1019.78
2017-04-08T05:38:33.640Z,1019.83
2017-04-08T05:39:33.671Z,1019.8
2017-04-08T05:40:33.696Z,1019.85
2017-04-08T05:41:33.727Z,1019.8
2017-04-08T05:42:33.759Z,1019.8
2017-04-08T05:43:33.793Z,1019.82
2017-04-08T05:44:33.817Z,1019.84
2017-04-08T05:45:33.844Z,1019.8
2017-04-08T05:46:33.875Z,1019.85
2017-04-08T05:47:33.910Z,1019.86
2017-04-08T05:48:33.936Z,1019.86
2017-04-08T05:49:33.969Z,1019.86
2017-04-08T05:50:33.993Z,1019.85
2017-04-08T05:51:34.030Z,1019.85
2017-04-08T05:52:34.062Z,1019.89
2017-04-08T05:53:34.073Z,1019.84
2017-04-08T05:54:34.117Z,1019.84
2017-04-08T05:55:34.131Z,1019.86
2017-04-08T05:56:34.176Z,1019.94
2017-04-08T05:57:34.207Z,1019.86
2017-04-08T05:58:34.236Z,1019.87
2017-04-08T05:59:34.270Z,1019.94
2017-04-08T06:00:34.296Z,1019.9
2017-04-08T06:01:34.335Z,1019.9
2017-04-08T06:02:34.359Z,1019.92
2017-04-08T06:03:34.387Z,1019.98
2017-04-08T06:04:34.414Z,1019.93
2017-04-08T06:05:34.447Z,1019.96
2017-04-08T06:06:34.456Z,1019.95
2017-04-08T06:07:34.507Z,1019.92
2017-04-08T06:08:34.537Z,1019.94
2017-04-08T06:09:34.573Z,1019.95
2017-04-08T06:10:34.600Z,1019.84
2017-04-08T06:11:34.624Z,1019.86
2017-04-08T06:12:34.660Z,1019.92
2017-04-08T06:13:34.689Z,1019.9
2017-04-08T06:14:34.722Z,1019.87
2017-04-08T06:15:34.746Z,1019.89
2017-04-08T06:16:34.775Z,1019.87
2017-04-08T06:17:34.808Z,1019.89
2017-04-08T06:18:34.841Z,1019.9
2017-04-08T06:19:34.868Z,1019.93
2017-04-08T06:20:34.890Z,1019.91
2017-04-08T06:21:34.928Z,1019.88
2017-04-08T06:22:34.960Z,1019.9
2017-04-08T06:23:34.989Z,1019.94
2017-04-08T06:24:35.018Z,1019.88
2017-04-08T06:25:35.053Z,1019.91
2017-04-08T06:26:35.069Z,1019.95
2017-04-08T06:27:35.110Z,1019.92
2017-04-08T06:28:35.137Z,1019.91
2017-04-08T06:29:35.170Z,1019.95
2017-04-08T06:30:35.188Z,1020.01
2017-04-08T06:31:35.228Z,1019.98
2017-04-08T06:32:35.264Z,1020.04
2017-04-08T06:33:35.291Z,1020.05
2017-04-08T06:34:35.321Z,1019.98
2017-04-08T06:35:35.354Z,1020.02
2017-04-08T06:36:35.385Z,1020.04
2017-04-08T06:37:35.409Z,1020.07
2017-04-08T06:38:35.439Z,1020.07
2017-04-08T06:39:35.472Z,1020.09
2017-04-08T06:40:35.489Z,1020.11
2017-04-08T06:41:35.517Z,1020.12
2017-04-08T06:42:35.565Z,1020.11
2017-04-08T06:43:35.572Z,1020.15
2017-04-08T06:44:35.628Z,1020.12
2017-04-08T06:45:35.656Z,1020.16
2017-04-08T06:46:35.688Z,1020.18
2017-04-08T06:47:35.716Z,1020.2
2017-04-08T06:48:35.749Z,1020.18
2017-04-08T06:49:35.776Z,1020.21
2017-04-08T06:50:35.808Z,1020.24
2017-04-08T06:51:35.836Z,1020.29
2017-04-08T06:52:35.867Z,1020.29
2017-04-08T06:53:35.903Z,1020.25
2017-04-08T06:54:35.940Z,1020.29
2017-04-08T06:55:35.958Z,1020.27
2017-04-08T06:56:35.993Z,1020.3
2017-04-08T06:57:36.017Z,1020.34
2017-04-08T06:58:36.047Z,1020.3
2017-04-08T06:59:36.081Z,1020.37
2017-04-08T07:00:36.113Z,1020.35
2017-04-08T07:01:36.146Z,1020.33
2017-04-08T07:02:36.169Z,1020.35
2017-04-08T07:03:36.204Z,1020.34
2017-04-08T07:04:36.229Z,1020.35
2017-04-08T07:05:36.262Z,1020.37
2017-04-08T07:06:36.297Z,1020.4
2017-04-08T07:07:36.329Z,1020.36
2017-04-08T07:08:36.353Z,1020.43
2017-04-08T07:09:36.389Z,1020.42
2017-04-08T07:10:36.418Z,1020.41
2017-04-08T07:11:36.451Z,1020.44
2017-04-08T07:12:36.482Z,1020.46
2017-04-08T07:13:36.508Z,1020.43
2017-04-08T07:14:36.538Z,1020.51
2017-04-08T07:15:36.570Z,1020.51
2017-04-08T07:16:36.598Z,1020.55
2017-04-08T07:17:36.631Z,1020.59
2017-04-08T07:18:36.663Z,1020.58
2017-04-08T07:19:36.688Z,1020.58
2017-04-08T07:20:36.708Z,1020.58
2017-04-08T07:21:36.749Z,1020.58
2017-04-08T07:22:36.786Z,1020.6
2017-04-08T07:23:36.816Z,1020.61
2017-04-08T07:24:36.847Z,1020.64
2017-04-08T07:25:36.875Z,1020.63
2017-04-08T07:26:36.908Z,1020.62
2017-04-08T07:27:36.941Z,1020.65
2017-04-08T07:28:36.956Z,1020.62
2017-04-08T07:29:37.003Z,1020.62
2017-04-08T07:30:37.033Z,1020.66
2017-04-08T07:31:37.062Z,1020.62
2017-04-08T07:32:37.097Z,1020.7
2017-04-08T07:33:37.107Z,1020.67
2017-04-08T07:34:37.159Z,1020.74
2017-04-08T07:35:37.185Z,1020.74
2017-04-08T07:36:37.206Z,1020.77
2017-04-08T07:37:37.252Z,1020.77
2017-04-08T07:38:37.259Z,1020.73
2017-04-08T07:39:37.309Z,1020.72
2017-04-08T07:40:37.342Z,1020.75
2017-04-08T07:41:37.376Z,1020.79
2017-04-08T07:42:37.406Z,1020.85
2017-04-08T07:43:37.439Z,1020.83
2017-04-08T07:44:37.467Z,1020.85
2017-04-08T07:45:37.505Z,1020.89
2017-04-08T07:46:37.529Z,1020.91
2017-04-08T07:47:37.559Z,1020.91
2017-04-08T07:48:37.595Z,1020.92
2017-04-08T07:49:37.608Z,1020.89
2017-04-08T07:50:37.652Z,1020.9
2017-04-08T07:51:37.687Z,1020.99
2017-04-08T07:52:37.715Z,1020.98
2017-04-08T07:53:37.752Z,1020.99
2017-04-08T07:54:37.782Z,1020.98
2017-04-08T07:55:37.813Z,1021.01
2017-04-08T07:56:37.847Z,1021.02
2017-04-08T07:57:37.877Z,1021.09
2017-04-08T07:58:37.912Z,1021.07
2017-04-08T07:59:37.937Z,1021.04
2017-04-08T08:00:37.968Z,1021.06
2017-04-08T08:01:38.001Z,1021.04
2017-04-08T08:02:38.035Z,1021.05
2017-04-08T08:03:38.065Z,1021.1
2017-04-08T08:04:38.096Z,1021.07
2017-04-08T08:05:38.109Z,1021.06
2017-04-08T08:06:38.158Z,1021.08
2017-04-08T08:07:38.189Z,1021.11
2017-04-08T08:08:38.211Z,1021.07
2017-04-08T08:09:38.252Z,1021.12
2017-04-08T08:10:38.280Z,1021.13
2017-04-08T08:11:38.308Z,1021.11
2017-04-08T08:12:38.349Z,1021.1
2017-04-08T08:13:38.378Z,1021.12
2017-04-08T08:14:38.412Z,1021.19
2017-04-08T08:15:38.439Z,1021.23
2017-04-08T08:16:38.474Z,1021.21
2017-04-08T08:17:38.487Z,1021.15
2017-04-08T08:18:38.537Z,1021.17
2017-04-08T08:19:38.568Z,1021.17
2017-04-08T08:20:38.602Z,1021.16
2017-04-08T08:21:38.633Z,1021.18
2017-04-08T08:22:38.662Z,1021.19
2017-04-08T08:23:38.698Z,1021.19
2017-04-08T08:24:38.709Z,1021.2
2017-04-08T08:25:38.744Z,1021.15
2017-04-08T08:26:38.790Z,1021.18
2017-04-08T08:27:38.810Z,1021.22
2017-04-08T08:28:38.852Z,1021.2
2017-04-08T08:29:38.884Z,1021.21
2017-04-08T08:30:38.913Z,1021.18
2017-04-08T08:31:38.952Z,1021.18
2017-04-08T08:32:38.983Z,1021.19
2017-04-08T08:33:39.012Z,1021.14
2017-04-08T08:34:39.048Z,1021.17
2017-04-08T08:35:39.081Z,1021.23
2017-04-08T08:36:39.111Z,1021.19
2017-04-08T08:37:39.139Z,1021.19
2017-04-08T08:38:39.176Z,1021.24
2017-04-08T08:39:39.209Z,1021.21
2017-04-08T08:40:39.240Z,1021.19
2017-04-08T08:41:39.271Z,1021.21
2017-04-08T08:42:39.306Z,1021.22
2017-04-08T08:43:39.337Z,1021.3
2017-04-08T08:44:39.368Z,1021.43
2017-04-08T08:45:39.402Z,1021.37
2017-04-08T08:46:39.433Z,1021.28
2017-04-08T08:47:39.469Z,1021.28
2017-04-08T08:48:39.488Z,1021.41
2017-04-08T08:49:39.523Z,1021.31
2017-04-08T08:50:39.565Z,1021.26
2017-04-08T08:51:39.599Z,1021.32
2017-04-08T08:52:39.631Z,1021.34
2017-04-08T08:53:39.653Z,1021.3
2017-04-08T08:54:39.700Z,1021.33
2017-04-08T08:55:39.732Z,1021.3
2017-04-08T08:56:39.767Z,1021.34
2017-04-08T08:57:39.798Z,1021.35
2017-04-08T08:58:39.828Z,1021.37
2017-04-08T08:59:39.867Z,1021.38
2017-04-08T09:00:39.899Z,1021.4
2017-04-08T09:01:39.910Z,1021.36
2017-04-08T09:02:39.966Z,1021.43
2017-04-08T09:03:40.004Z,1021.35
2017-04-08T09:04:40.029Z,1021.37
2017-04-08T09:05:40.064Z,1021.48
2017-04-08T09:06:40.100Z,1021.49
2017-04-08T09:07:40.139Z,1021.51
2017-04-08T09:08:40.163Z,1021.48
2017-04-08T09:09:40.200Z,1021.52
2017-04-08T09:10:40.231Z,1021.56
2017-04-08T09:11:40.269Z,1021.53
2017-04-08T09:12:40.298Z,1021.5
2017-04-08T09:13:40.338Z,1021.51
2017-04-08T09:14:40.365Z,1021.51
2017-04-08T09:15:40.401Z,1021.51
2017-04-08T09:16:40.430Z,1021.48
2017-04-08T09:17:40.464Z,1021.49
2017-04-08T09:18:40.500Z,1021.51
2017-04-08T09:19:40.534Z,1021.6
2017-04-08T09:20:40.565Z,1021.68
2017-04-08T09:21:40.600Z,1021.61
2017-04-08T09:22:40.639Z,1021.67
2017-04-08T09:23:40.668Z,1021.74
2017-04-08T09:24:40.699Z,1021.77
2017-04-08T09:25:40.734Z,1021.76
2017-04-08T09:26:40.766Z,1021.57
2017-04-08T09:27:40.803Z,1021.57
2017-04-08T09:28:40.838Z,1021.57
2017-04-08T09:29:40.874Z,1021.59
2017-04-08T09:30:40.909Z,1021.66
2017-04-08T09:31:40.919Z,1021.62
2017-04-08T09:32:40.977Z,1021.61
2017-04-08T09:33:41.006Z,1021.61
2017-04-08T09:34:41.041Z,1021.61
2017-04-08T09:35:41.378Z,1021.58
2017-04-08T09:36:41.112Z,1021.72
2017-04-08T09:37:41.136Z,1021.55
2017-04-08T09:38:41.185Z,1021.64
2017-04-08T09:39:41.219Z,1021.82
2017-04-08T09:40:41.257Z,1022.65
2017-04-08T09:41:41.289Z,1021.67
2017-04-08T09:42:41.322Z,1021.81
2017-04-08T09:43:41.362Z,1021.61
2017-04-08T09:44:41.395Z,1021.64
2017-04-08T09:45:41.425Z,1021.55
2017-04-08T09:46:41.465Z,1022.72
2017-04-08T09:47:41.502Z,1021.86
2017-04-08T09:48:41.540Z,1021.75
2017-04-08T09:49:41.572Z,1021.95
2017-04-08T09:50:41.613Z,1022.56
2017-04-08T09:51:41.637Z,1021.67
2017-04-08T09:52:41.686Z,1021.75
2017-04-08T09:53:41.724Z,1021.96
2017-04-08T09:54:41.760Z,1021.71
2017-04-08T09:55:41.797Z,1021.7
2017-04-08T09:56:41.835Z,1021.75
2017-04-08T09:57:41.875Z,1022.83
2017-04-08T09:58:41.913Z,1022.03
2017-04-08T09:59:41.945Z,1022.89
2017-04-08T10:00:41.986Z,1021.88
2017-04-08T10:01:42.027Z,1021.96
2017-04-08T10:02:42.062Z,1021.72
2017-04-08T10:03:42.104Z,1021.56
2017-04-08T10:04:42.139Z,1021.54
2017-04-08T10:05:42.174Z,1021.62
2017-04-08T10:06:42.219Z,1021.63
2017-04-08T10:07:42.235Z,1021.69
2017-04-08T10:08:42.289Z,1021.75
2017-04-08T10:09:42.325Z,1021.67
2017-04-08T10:10:42.366Z,1022
2017-04-08T10:11:42.402Z,1021.73
2017-04-08T10:12:42.437Z,1021.66
2017-04-08T10:13:42.479Z,1021.67
2017-04-08T10:14:42.494Z,1022.31
2017-04-08T10:15:42.546Z,1021.77
2017-04-08T10:16:42.589Z,1021.88
2017-04-08T10:17:42.626Z,1022.24
2017-04-08T10:18:42.666Z,1021.8
2017-04-08T10:19:42.699Z,1021.83
2017-04-08T10:20:42.736Z,1021.64
2017-04-08T10:21:42.775Z,1021.72
2017-04-08T10:22:42.813Z,1021.77
2017-04-08T10:23:42.849Z,1021.79
2017-04-08T10:24:42.889Z,1021.95
2017-04-08T10:25:42.921Z,1021.93
2017-04-08T10:26:43.314Z,1023.99
2017-04-08T10:27:42.995Z,1023.11
2017-04-08T10:28:43.036Z,1022.22
2017-04-08T10:29:43.069Z,1022.9
2017-04-08T10:30:43.107Z,1022.23
2017-04-08T10:31:43.146Z,1021.68
2017-04-08T10:32:43.177Z,1022.75
2017-04-08T10:33:43.221Z,1021.64
2017-04-08T10:34:43.247Z,1021.77
2017-04-08T10:35:43.288Z,1021.68
2017-04-08T10:36:43.329Z,1021.81
2017-04-08T10:37:43.350Z,1021.7
2017-04-08T10:38:43.402Z,1022.23
2017-04-08T10:39:43.447Z,1022.42
2017-04-08T10:40:43.475Z,1022.78
2017-04-08T10:41:43.514Z,1021.7
2017-04-08T10:42:43.547Z,1022.24
2017-04-08T10:43:43.584Z,1022.47
2017-04-08T10:44:43.624Z,1021.59
2017-04-08T10:45:43.650Z,1021.79
2017-04-08T10:46:43.697Z,1021.57
2017-04-08T10:47:43.736Z,1021.55
2017-04-08T10:48:43.773Z,1021.48
2017-04-08T10:49:43.808Z,1021.56
2017-04-08T10:50:43.848Z,1021.54
2017-04-08T10:51:43.884Z,1021.69
2017-04-08T10:52:43.918Z,1023.86
2017-04-08T10:53:43.961Z,1021.47
2017-04-08T10:54:43.995Z,1021.69
2017-04-08T10:55:44.034Z,1021.81
2017-04-08T10:56:44.065Z,1022.33
2017-04-08T10:57:44.102Z,1021.54
2017-04-08T10:58:44.143Z,1021.5
2017-04-08T10:59:44.177Z,1021.4
2017-04-08T11:00:44.212Z,1021.43
2017-04-08T11:01:44.245Z,1021.4
2017-04-08T11:02:44.284Z,1021.54
2017-04-08T11:03:44.325Z,1021.6
2017-04-08T11:04:44.358Z,1021.39
2017-04-08T11:05:44.393Z,1021.44
2017-04-08T11:06:44.428Z,1021.66
2017-04-08T11:07:44.465Z,1021.52
2017-04-08T11:08:44.504Z,1021.45
2017-04-08T11:09:44.536Z,1021.43
2017-04-08T11:10:44.579Z,1021.6
2017-04-08T11:11:44.608Z,1021.55
2017-04-08T11:12:44.646Z,1021.36
2017-04-08T11:13:44.686Z,1021.31
2017-04-08T11:14:44.716Z,1021.47
2017-04-08T11:15:44.756Z,1021.48
2017-04-08T11:16:44.790Z,1021.42
2017-04-08T11:17:44.934Z,1021.38
2017-04-08T11:18:44.859Z,1021.44
2017-04-08T11:19:44.901Z,1021.44
2017-04-08T11:20:44.942Z,1021.48
2017-04-08T11:21:44.956Z,1021.45
2017-04-08T11:22:45.007Z,1021.37
2017-04-08T11:23:45.045Z,1021.38
2017-04-08T11:24:45.087Z,1021.39
2017-04-08T11:25:45.118Z,1021.37
2017-04-08T11:26:45.157Z,1021.43
2017-04-08T11:27:45.192Z,1021.43
2017-04-08T11:28:45.231Z,1021.36
2017-04-08T11:29:45.265Z,1021.31
2017-04-08T11:30:45.283Z,1021.29
2017-04-08T11:31:45.342Z,1021.33
2017-04-08T11:32:45.357Z,1021.37
2017-04-08T11:33:45.410Z,1021.38
2017-04-08T11:34:45.450Z,1021.45
2017-04-08T11:35:45.481Z,1021.34
2017-04-08T11:36:45.528Z,1021.4
2017-04-08T11:37:45.558Z,1021.35
2017-04-08T11:38:45.596Z,1021.25
2017-04-08T11:39:45.630Z,1021.14
2017-04-08T11:40:45.667Z,1021.18
2017-04-08T11:41:45.698Z,1021.2
2017-04-08T11:42:45.740Z,1021.21
2017-04-08T11:43:45.779Z,1021.28
2017-04-08T11:44:45.815Z,1021.25
2017-04-08T11:45:45.851Z,1021.26
2017-04-08T11:46:45.886Z,1021.3
2017-04-08T11:47:45.923Z,1021.28
2017-04-08T11:48:45.960Z,1021.26
2017-04-08T11:49:45.990Z,1021.3
2017-04-08T11:50:46.031Z,1021.32
2017-04-08T11:51:46.065Z,1021.31
2017-04-08T11:52:46.106Z,1021.33
2017-04-08T11:53:46.141Z,1021.25
2017-04-08T11:54:46.180Z,1021.27
2017-04-08T11:55:46.221Z,1021.26
2017-04-08T11:56:46.253Z,1021.21
2017-04-08T11:57:46.285Z,1021.23
2017-04-08T11:58:46.327Z,1021.17
2017-04-08T11:59:46.356Z,1021.21
2017-04-08T12:00:46.395Z,1021.2
2017-04-08T12:01:46.435Z,1021.21
2017-04-08T12:02:46.469Z,1021.17
2017-04-08T12:03:46.506Z,1021.21
2017-04-08T12:04:46.543Z,1021.27
2017-04-08T12:05:46.579Z,1021.22
2017-04-08T12:06:46.616Z,1021.26
2017-04-08T12:07:46.652Z,1021.27
2017-04-08T12:08:46.688Z,1021.28